sensor_id;sensor_type;location;lat;lon;timestamp;P1;durP1;ratioP1;P2;durP2;ratioP2
43994;SDS011;51687;52.160;5.298;2023-11-22T00:00:58;11.57;;;10.57;;
43994;SDS011;51687;52.160;5.298;2023-11-22T00:03:25;10.90;;;10.00;;
43994;SDS011;51687;52.160;5.298;2023-11-22T00:05:52;11.55;;;10.35;;
43994;SDS011;51687;52.160;5.298;2023-11-22T00:08:19;11.32;;;10.43;;
43994;SDS011;51687;52.160;5.298;2023-11-22T00:10:45;11.85;;;10.95;;
43994;SDS011;51687;52.160;5.298;2023-11-22T00:13:12;11.05;;;10.15;;
43994;SDS011;51687;52.160;5.298;2023-11-22T00:15:39;11.23;;;10.13;;
43994;SDS011;51687;52.160;5.298;2023-11-22T00:18:05;12.38;;;11.27;;
43994;SDS011;51687;52.160;5.298;2023-11-22T00:20:32;10.95;;;10.05;;
43994;SDS011;51687;52.160;5.298;2023-11-22T00:23:02;11.38;;;10.48;;
43994;SDS011;51687;52.160;5.298;2023-11-22T00:25:30;9.90;;;8.93;;
43994;SDS011;51687;52.160;5.298;2023-11-22T00:27:56;10.85;;;9.77;;
43994;SDS011;51687;52.160;5.298;2023-11-22T00:30:23;10.77;;;9.30;;
43994;SDS011;51687;52.160;5.298;2023-11-22T00:32:50;9.90;;;9.07;;
43994;SDS011;51687;52.160;5.298;2023-11-22T00:35:17;13.20;;;10.02;;
43994;SDS011;51687;52.160;5.298;2023-11-22T00:37:44;11.90;;;10.45;;
43994;SDS011;51687;52.160;5.298;2023-11-22T00:40:12;12.63;;;9.95;;
43994;SDS011;51687;52.160;5.298;2023-11-22T00:42:39;10.40;;;9.40;;
43994;SDS011;51687;52.160;5.298;2023-11-22T00:45:09;12.68;;;9.23;;
43994;SDS011;51687;52.160;5.298;2023-11-22T00:47:36;9.13;;;8.43;;
43994;SDS011;51687;52.160;5.298;2023-11-22T00:50:05;9.15;;;8.43;;
43994;SDS011;51687;52.160;5.298;2023-11-22T00:52:34;9.98;;;9.07;;
43994;SDS011;51687;52.160;5.298;2023-11-22T00:55:01;9.35;;;8.60;;
43994;SDS011;51687;52.160;5.298;2023-11-22T00:57:28;8.63;;;7.93;;
43994;SDS011;51687;52.160;5.298;2023-11-22T00:59:56;8.98;;;8.10;;
43994;SDS011;51687;52.160;5.298;2023-11-22T01:02:24;10.88;;;8.65;;
43994;SDS011;51687;52.160;5.298;2023-11-22T01:04:51;9.40;;;8.60;;
43994;SDS011;51687;52.160;5.298;2023-11-22T01:07:18;9.07;;;8.38;;
43994;SDS011;51687;52.160;5.298;2023-11-22T01:09:45;8.82;;;8.13;;
43994;SDS011;51687;52.160;5.298;2023-11-22T01:12:12;9.88;;;8.82;;
43994;SDS011;51687;52.160;5.298;2023-11-22T01:14:39;11.60;;;8.80;;
43994;SDS011;51687;52.160;5.298;2023-11-22T01:17:06;9.75;;;8.95;;
43994;SDS011;51687;52.160;5.298;2023-11-22T01:19:32;10.95;;;8.88;;
43994;SDS011;51687;52.160;5.298;2023-11-22T01:21:59;10.23;;;9.30;;
43994;SDS011;51687;52.160;5.298;2023-11-22T01:24:26;10.93;;;8.90;;
43994;SDS011;51687;52.160;5.298;2023-11-22T01:26:54;10.80;;;8.73;;
43994;SDS011;51687;52.160;5.298;2023-11-22T01:29:21;13.57;;;10.25;;
43994;SDS011;51687;52.160;5.298;2023-11-22T01:31:48;12.32;;;10.57;;
43994;SDS011;51687;52.160;5.298;2023-11-22T01:34:15;11.43;;;10.38;;
43994;SDS011;51687;52.160;5.298;2023-11-22T01:36:43;12.38;;;10.60;;
43994;SDS011;51687;52.160;5.298;2023-11-22T01:39:10;11.25;;;10.20;;
43994;SDS011;51687;52.160;5.298;2023-11-22T01:41:39;12.23;;;10.90;;
43994;SDS011;51687;52.160;5.298;2023-11-22T01:44:08;11.73;;;10.63;;
43994;SDS011;51687;52.160;5.298;2023-11-22T01:46:35;13.15;;;11.75;;
43994;SDS011;51687;52.160;5.298;2023-11-22T01:49:02;13.30;;;11.95;;
43994;SDS011;51687;52.160;5.298;2023-11-22T01:51:29;13.50;;;12.23;;
43994;SDS011;51687;52.160;5.298;2023-11-22T01:53:56;15.02;;;11.80;;
43994;SDS011;51687;52.160;5.298;2023-11-22T01:56:25;14.52;;;12.13;;
43994;SDS011;51687;52.160;5.298;2023-11-22T01:58:55;15.05;;;12.38;;
43994;SDS011;51687;52.160;5.298;2023-11-22T02:01:24;12.80;;;11.38;;
43994;SDS011;51687;52.160;5.298;2023-11-22T02:03:52;13.25;;;11.43;;
43994;SDS011;51687;52.160;5.298;2023-11-22T02:06:20;13.90;;;10.95;;
43994;SDS011;51687;52.160;5.298;2023-11-22T02:08:47;11.60;;;10.53;;
43994;SDS011;51687;52.160;5.298;2023-11-22T02:11:18;11.50;;;9.68;;
43994;SDS011;51687;52.160;5.298;2023-11-22T02:13:51;10.10;;;9.18;;
43994;SDS011;51687;52.160;5.298;2023-11-22T02:16:18;9.95;;;9.07;;
43994;SDS011;51687;52.160;5.298;2023-11-22T02:18:46;10.93;;;8.73;;
43994;SDS011;51687;52.160;5.298;2023-11-22T02:21:15;8.82;;;8.23;;
43994;SDS011;51687;52.160;5.298;2023-11-22T02:23:43;8.45;;;7.72;;
43994;SDS011;51687;52.160;5.298;2023-11-22T02:26:10;9.05;;;8.35;;
43994;SDS011;51687;52.160;5.298;2023-11-22T02:28:36;9.55;;;8.73;;
43994;SDS011;51687;52.160;5.298;2023-11-22T02:31:04;9.52;;;8.55;;
43994;SDS011;51687;52.160;5.298;2023-11-22T02:33:30;8.73;;;7.93;;
43994;SDS011;51687;52.160;5.298;2023-11-22T02:35:57;8.73;;;7.82;;
43994;SDS011;51687;52.160;5.298;2023-11-22T02:38:24;8.63;;;8.00;;
43994;SDS011;51687;52.160;5.298;2023-11-22T02:40:52;9.65;;;8.75;;
43994;SDS011;51687;52.160;5.298;2023-11-22T02:43:20;8.20;;;7.50;;
43994;SDS011;51687;52.160;5.298;2023-11-22T02:45:47;9.35;;;8.18;;
43994;SDS011;51687;52.160;5.298;2023-11-22T02:48:14;8.93;;;8.20;;
43994;SDS011;51687;52.160;5.298;2023-11-22T02:50:40;8.00;;;7.25;;
43994;SDS011;51687;52.160;5.298;2023-11-22T02:53:10;8.80;;;7.90;;
43994;SDS011;51687;52.160;5.298;2023-11-22T02:55:36;11.13;;;7.78;;
43994;SDS011;51687;52.160;5.298;2023-11-22T02:58:03;9.73;;;7.88;;
43994;SDS011;51687;52.160;5.298;2023-11-22T03:00:30;8.48;;;7.78;;
43994;SDS011;51687;52.160;5.298;2023-11-22T03:02:57;8.30;;;7.60;;
43994;SDS011;51687;52.160;5.298;2023-11-22T03:05:24;8.18;;;7.57;;
43994;SDS011;51687;52.160;5.298;2023-11-22T03:07:51;8.30;;;7.53;;
43994;SDS011;51687;52.160;5.298;2023-11-22T03:10:17;7.93;;;7.22;;
43994;SDS011;51687;52.160;5.298;2023-11-22T03:12:44;10.93;;;6.90;;
43994;SDS011;51687;52.160;5.298;2023-11-22T03:15:11;7.97;;;7.22;;
43994;SDS011;51687;52.160;5.298;2023-11-22T03:17:38;8.98;;;8.20;;
43994;SDS011;51687;52.160;5.298;2023-11-22T03:20:05;9.75;;;8.80;;
43994;SDS011;51687;52.160;5.298;2023-11-22T03:22:37;8.20;;;7.60;;
43994;SDS011;51687;52.160;5.298;2023-11-22T03:25:04;11.15;;;8.05;;
43994;SDS011;51687;52.160;5.298;2023-11-22T03:27:31;48.22;;;9.40;;
43994;SDS011;51687;52.160;5.298;2023-11-22T03:29:59;14.10;;;8.73;;
43994;SDS011;51687;52.160;5.298;2023-11-22T03:32:26;15.20;;;9.17;;
43994;SDS011;51687;52.160;5.298;2023-11-22T03:34:53;15.00;;;8.93;;
43994;SDS011;51687;52.160;5.298;2023-11-22T03:37:20;9.40;;;8.70;;
43994;SDS011;51687;52.160;5.298;2023-11-22T03:39:47;9.18;;;8.27;;
43994;SDS011;51687;52.160;5.298;2023-11-22T03:42:17;9.20;;;8.40;;
43994;SDS011;51687;52.160;5.298;2023-11-22T03:44:43;8.65;;;8.05;;
43994;SDS011;51687;52.160;5.298;2023-11-22T03:47:10;10.00;;;9.00;;
43994;SDS011;51687;52.160;5.298;2023-11-22T03:49:40;9.27;;;8.52;;
43994;SDS011;51687;52.160;5.298;2023-11-22T03:52:07;9.02;;;8.20;;
43994;SDS011;51687;52.160;5.298;2023-11-22T03:54:34;9.68;;;8.77;;
43994;SDS011;51687;52.160;5.298;2023-11-22T03:57:01;9.15;;;8.45;;
43994;SDS011;51687;52.160;5.298;2023-11-22T03:59:28;9.85;;;8.95;;
43994;SDS011;51687;52.160;5.298;2023-11-22T04:01:55;9.02;;;8.23;;
43994;SDS011;51687;52.160;5.298;2023-11-22T04:04:23;9.45;;;8.65;;
43994;SDS011;51687;52.160;5.298;2023-11-22T04:06:50;8.95;;;8.25;;
43994;SDS011;51687;52.160;5.298;2023-11-22T04:09:16;9.52;;;8.63;;
43994;SDS011;51687;52.160;5.298;2023-11-22T04:11:43;9.40;;;8.60;;
43994;SDS011;51687;52.160;5.298;2023-11-22T04:14:10;9.98;;;9.15;;
43994;SDS011;51687;52.160;5.298;2023-11-22T04:16:37;9.45;;;8.65;;
43994;SDS011;51687;52.160;5.298;2023-11-22T04:19:04;9.32;;;8.38;;
43994;SDS011;51687;52.160;5.298;2023-11-22T04:21:31;10.52;;;8.98;;
43994;SDS011;51687;52.160;5.298;2023-11-22T04:23:58;9.23;;;8.52;;
43994;SDS011;51687;52.160;5.298;2023-11-22T04:26:25;9.57;;;8.77;;
43994;SDS011;51687;52.160;5.298;2023-11-22T04:28:52;9.67;;;8.87;;
43994;SDS011;51687;52.160;5.298;2023-11-22T04:31:19;9.43;;;8.65;;
43994;SDS011;51687;52.160;5.298;2023-11-22T04:33:46;8.82;;;8.05;;
43994;SDS011;51687;52.160;5.298;2023-11-22T04:36:13;9.77;;;8.45;;
43994;SDS011;51687;52.160;5.298;2023-11-22T04:38:40;9.07;;;8.25;;
43994;SDS011;51687;52.160;5.298;2023-11-22T04:41:06;8.88;;;8.15;;
43994;SDS011;51687;52.160;5.298;2023-11-22T04:43:34;10.52;;;9.63;;
43994;SDS011;51687;52.160;5.298;2023-11-22T04:46:01;10.73;;;9.82;;
43994;SDS011;51687;52.160;5.298;2023-11-22T04:48:27;11.27;;;8.93;;
43994;SDS011;51687;52.160;5.298;2023-11-22T04:50:54;10.20;;;9.43;;
43994;SDS011;51687;52.160;5.298;2023-11-22T04:53:22;9.40;;;8.60;;
43994;SDS011;51687;52.160;5.298;2023-11-22T04:55:49;9.87;;;8.93;;
43994;SDS011;51687;52.160;5.298;2023-11-22T04:58:15;10.50;;;9.60;;
43994;SDS011;51687;52.160;5.298;2023-11-22T05:00:42;9.57;;;8.63;;
43994;SDS011;51687;52.160;5.298;2023-11-22T05:03:09;8.98;;;8.10;;
43994;SDS011;51687;52.160;5.298;2023-11-22T05:05:36;10.45;;;8.18;;
43994;SDS011;51687;52.160;5.298;2023-11-22T05:08:02;8.52;;;7.93;;
43994;SDS011;51687;52.160;5.298;2023-11-22T05:10:29;8.43;;;7.80;;
43994;SDS011;51687;52.160;5.298;2023-11-22T05:12:56;8.40;;;7.70;;
43994;SDS011;51687;52.160;5.298;2023-11-22T05:15:26;8.18;;;7.57;;
43994;SDS011;51687;52.160;5.298;2023-11-22T05:17:54;7.95;;;7.25;;
43994;SDS011;51687;52.160;5.298;2023-11-22T05:20:20;8.30;;;7.70;;
43994;SDS011;51687;52.160;5.298;2023-11-22T05:22:47;8.05;;;7.35;;
43994;SDS011;51687;52.160;5.298;2023-11-22T05:25:14;7.72;;;7.13;;
43994;SDS011;51687;52.160;5.298;2023-11-22T05:27:41;7.90;;;7.22;;
43994;SDS011;51687;52.160;5.298;2023-11-22T05:30:08;9.02;;;7.72;;
43994;SDS011;51687;52.160;5.298;2023-11-22T05:32:37;8.05;;;7.30;;
43994;SDS011;51687;52.160;5.298;2023-11-22T05:35:04;7.93;;;7.22;;
43994;SDS011;51687;52.160;5.298;2023-11-22T05:37:36;8.25;;;7.45;;
43994;SDS011;51687;52.160;5.298;2023-11-22T05:40:04;8.23;;;7.53;;
43994;SDS011;51687;52.160;5.298;2023-11-22T05:42:31;7.38;;;6.70;;
43994;SDS011;51687;52.160;5.298;2023-11-22T05:44:58;8.52;;;7.72;;
43994;SDS011;51687;52.160;5.298;2023-11-22T05:47:25;8.60;;;7.63;;
43994;SDS011;51687;52.160;5.298;2023-11-22T05:49:52;7.57;;;6.65;;
43994;SDS011;51687;52.160;5.298;2023-11-22T05:52:18;8.15;;;7.43;;
43994;SDS011;51687;52.160;5.298;2023-11-22T05:54:46;7.63;;;7.00;;
43994;SDS011;51687;52.160;5.298;2023-11-22T05:57:14;8.05;;;7.35;;
43994;SDS011;51687;52.160;5.298;2023-11-22T05:59:41;8.43;;;7.55;;
43994;SDS011;51687;52.160;5.298;2023-11-22T06:02:08;7.40;;;6.88;;
43994;SDS011;51687;52.160;5.298;2023-11-22T06:04:35;8.13;;;7.13;;
43994;SDS011;51687;52.160;5.298;2023-11-22T06:07:04;6.93;;;6.43;;
43994;SDS011;51687;52.160;5.298;2023-11-22T06:09:31;7.57;;;6.90;;
43994;SDS011;51687;52.160;5.298;2023-11-22T06:11:59;10.65;;;7.32;;
43994;SDS011;51687;52.160;5.298;2023-11-22T06:14:26;8.50;;;7.40;;
43994;SDS011;51687;52.160;5.298;2023-11-22T06:16:53;8.55;;;6.95;;
43994;SDS011;51687;52.160;5.298;2023-11-22T06:19:20;7.68;;;7.00;;
43994;SDS011;51687;52.160;5.298;2023-11-22T06:21:47;8.82;;;7.05;;
43994;SDS011;51687;52.160;5.298;2023-11-22T06:24:14;8.00;;;7.43;;
43994;SDS011;51687;52.160;5.298;2023-11-22T06:26:46;8.35;;;7.15;;
43994;SDS011;51687;52.160;5.298;2023-11-22T06:29:13;7.53;;;7.00;;
43994;SDS011;51687;52.160;5.298;2023-11-22T06:31:41;8.57;;;7.90;;
43994;SDS011;51687;52.160;5.298;2023-11-22T06:34:08;8.82;;;8.15;;
43994;SDS011;51687;52.160;5.298;2023-11-22T06:36:35;11.35;;;8.63;;
43994;SDS011;51687;52.160;5.298;2023-11-22T06:39:02;10.10;;;8.70;;
43994;SDS011;51687;52.160;5.298;2023-11-22T06:41:31;10.00;;;9.20;;
43994;SDS011;51687;52.160;5.298;2023-11-22T06:43:58;9.75;;;8.90;;
43994;SDS011;51687;52.160;5.298;2023-11-22T06:46:26;9.43;;;8.73;;
43994;SDS011;51687;52.160;5.298;2023-11-22T06:48:53;10.40;;;9.50;;
43994;SDS011;51687;52.160;5.298;2023-11-22T06:51:22;11.20;;;10.40;;
43994;SDS011;51687;52.160;5.298;2023-11-22T06:53:50;11.48;;;10.57;;
43994;SDS011;51687;52.160;5.298;2023-11-22T06:56:22;11.82;;;11.02;;
43994;SDS011;51687;52.160;5.298;2023-11-22T06:58:49;13.13;;;12.05;;
43994;SDS011;51687;52.160;5.298;2023-11-22T07:01:17;18.53;;;12.83;;
43994;SDS011;51687;52.160;5.298;2023-11-22T07:03:46;14.65;;;13.35;;
43994;SDS011;51687;52.160;5.298;2023-11-22T07:06:13;16.35;;;14.77;;
43994;SDS011;51687;52.160;5.298;2023-11-22T07:08:41;16.73;;;15.05;;
43994;SDS011;51687;52.160;5.298;2023-11-22T07:11:09;14.30;;;13.20;;
43994;SDS011;51687;52.160;5.298;2023-11-22T07:13:36;14.83;;;13.67;;
43994;SDS011;51687;52.160;5.298;2023-11-22T07:16:05;15.93;;;14.63;;
43994;SDS011;51687;52.160;5.298;2023-11-22T07:18:33;17.25;;;15.82;;
43994;SDS011;51687;52.160;5.298;2023-11-22T07:21:00;15.75;;;14.55;;
43994;SDS011;51687;52.160;5.298;2023-11-22T07:23:27;15.75;;;14.20;;
43994;SDS011;51687;52.160;5.298;2023-11-22T07:25:55;15.73;;;14.25;;
43994;SDS011;51687;52.160;5.298;2023-11-22T07:28:22;17.40;;;15.82;;
43994;SDS011;51687;52.160;5.298;2023-11-22T07:30:50;17.60;;;16.17;;
43994;SDS011;51687;52.160;5.298;2023-11-22T07:33:18;17.45;;;15.52;;
43994;SDS011;51687;52.160;5.298;2023-11-22T07:35:46;20.13;;;17.25;;
43994;SDS011;51687;52.160;5.298;2023-11-22T07:38:14;18.52;;;16.77;;
43994;SDS011;51687;52.160;5.298;2023-11-22T07:40:43;19.17;;;16.70;;
43994;SDS011;51687;52.160;5.298;2023-11-22T07:43:11;18.52;;;17.10;;
43994;SDS011;51687;52.160;5.298;2023-11-22T07:45:38;18.25;;;16.73;;
43994;SDS011;51687;52.160;5.298;2023-11-22T07:48:05;20.65;;;18.25;;
43994;SDS011;51687;52.160;5.298;2023-11-22T07:50:33;19.50;;;17.58;;
43994;SDS011;51687;52.160;5.298;2023-11-22T07:53:00;19.05;;;17.20;;
43994;SDS011;51687;52.160;5.298;2023-11-22T07:57:56;18.17;;;16.73;;
43994;SDS011;51687;52.160;5.298;2023-11-22T08:00:24;19.88;;;18.00;;
43994;SDS011;51687;52.160;5.298;2023-11-22T08:02:51;19.80;;;17.77;;
43994;SDS011;51687;52.160;5.298;2023-11-22T08:05:20;22.40;;;18.70;;
43994;SDS011;51687;52.160;5.298;2023-11-22T08:07:50;18.83;;;16.98;;
43994;SDS011;51687;52.160;5.298;2023-11-22T08:10:17;19.10;;;17.05;;
43994;SDS011;51687;52.160;5.298;2023-11-22T08:12:48;19.25;;;17.42;;
43994;SDS011;51687;52.160;5.298;2023-11-22T08:15:16;22.10;;;16.17;;
43994;SDS011;51687;52.160;5.298;2023-11-22T08:17:46;19.40;;;15.77;;
43994;SDS011;51687;52.160;5.298;2023-11-22T08:20:14;17.83;;;16.23;;
43994;SDS011;51687;52.160;5.298;2023-11-22T08:22:45;18.17;;;16.25;;
43994;SDS011;51687;52.160;5.298;2023-11-22T08:25:12;16.65;;;15.13;;
43994;SDS011;51687;52.160;5.298;2023-11-22T08:27:40;17.30;;;15.70;;
43994;SDS011;51687;52.160;5.298;2023-11-22T08:30:08;18.73;;;16.50;;
43994;SDS011;51687;52.160;5.298;2023-11-22T08:32:40;19.63;;;16.33;;
43994;SDS011;51687;52.160;5.298;2023-11-22T08:35:10;17.77;;;16.20;;
43994;SDS011;51687;52.160;5.298;2023-11-22T08:37:41;18.92;;;17.17;;
43994;SDS011;51687;52.160;5.298;2023-11-22T08:40:09;18.30;;;16.42;;
43994;SDS011;51687;52.160;5.298;2023-11-22T08:42:46;18.63;;;16.70;;
43994;SDS011;51687;52.160;5.298;2023-11-22T08:45:14;34.15;;;17.65;;
43994;SDS011;51687;52.160;5.298;2023-11-22T08:47:42;48.28;;;20.50;;
43994;SDS011;51687;52.160;5.298;2023-11-22T08:50:10;52.77;;;21.00;;
43994;SDS011;51687;52.160;5.298;2023-11-22T08:52:37;41.40;;;20.02;;
43994;SDS011;51687;52.160;5.298;2023-11-22T08:55:05;51.58;;;20.17;;
43994;SDS011;51687;52.160;5.298;2023-11-22T08:57:37;39.85;;;20.13;;
43994;SDS011;51687;52.160;5.298;2023-11-22T09:00:04;31.95;;;19.33;;
43994;SDS011;51687;52.160;5.298;2023-11-22T09:02:35;37.15;;;18.65;;
43994;SDS011;51687;52.160;5.298;2023-11-22T09:05:03;22.00;;;19.90;;
43994;SDS011;51687;52.160;5.298;2023-11-22T09:07:33;23.30;;;20.10;;
43994;SDS011;51687;52.160;5.298;2023-11-22T09:10:04;22.08;;;19.75;;
43994;SDS011;51687;52.160;5.298;2023-11-22T09:12:39;22.33;;;20.33;;
43994;SDS011;51687;52.160;5.298;2023-11-22T09:15:08;21.88;;;19.92;;
43994;SDS011;51687;52.160;5.298;2023-11-22T09:17:39;22.65;;;20.45;;
43994;SDS011;51687;52.160;5.298;2023-11-22T09:20:12;22.70;;;20.35;;
43994;SDS011;51687;52.160;5.298;2023-11-22T09:22:45;25.77;;;21.52;;
43994;SDS011;51687;52.160;5.298;2023-11-22T09:25:20;24.48;;;22.13;;
43994;SDS011;51687;52.160;5.298;2023-11-22T09:27:48;24.02;;;21.77;;
43994;SDS011;51687;52.160;5.298;2023-11-22T09:30:21;23.25;;;20.98;;
43994;SDS011;51687;52.160;5.298;2023-11-22T09:33:08;23.60;;;21.05;;
43994;SDS011;51687;52.160;5.298;2023-11-22T09:35:36;24.02;;;21.65;;
43994;SDS011;51687;52.160;5.298;2023-11-22T09:38:04;23.88;;;21.85;;
43994;SDS011;51687;52.160;5.298;2023-11-22T09:43:06;26.38;;;23.52;;
43994;SDS011;51687;52.160;5.298;2023-11-22T09:45:33;25.75;;;23.00;;
43994;SDS011;51687;52.160;5.298;2023-11-22T09:48:02;26.02;;;23.30;;
43994;SDS011;51687;52.160;5.298;2023-11-22T09:50:33;25.60;;;23.02;;
43994;SDS011;51687;52.160;5.298;2023-11-22T09:53:02;25.10;;;22.35;;
43994;SDS011;51687;52.160;5.298;2023-11-22T09:55:32;31.73;;;24.38;;
43994;SDS011;51687;52.160;5.298;2023-11-22T09:57:59;26.58;;;23.90;;
43994;SDS011;51687;52.160;5.298;2023-11-22T10:00:28;25.90;;;23.58;;
43994;SDS011;51687;52.160;5.298;2023-11-22T10:02:58;28.75;;;23.73;;
43994;SDS011;51687;52.160;5.298;2023-11-22T10:05:26;27.15;;;24.23;;
43994;SDS011;51687;52.160;5.298;2023-11-22T10:07:55;26.05;;;23.75;;
43994;SDS011;51687;52.160;5.298;2023-11-22T10:10:22;26.02;;;23.58;;
43994;SDS011;51687;52.160;5.298;2023-11-22T10:12:50;24.85;;;22.70;;
43994;SDS011;51687;52.160;5.298;2023-11-22T10:15:22;23.52;;;21.23;;
43994;SDS011;51687;52.160;5.298;2023-11-22T10:17:56;24.88;;;22.35;;
43994;SDS011;51687;52.160;5.298;2023-11-22T10:20:36;24.20;;;20.60;;
43994;SDS011;51687;52.160;5.298;2023-11-22T10:23:11;24.35;;;21.75;;
43994;SDS011;51687;52.160;5.298;2023-11-22T10:25:49;25.05;;;22.90;;
43994;SDS011;51687;52.160;5.298;2023-11-22T10:28:18;24.77;;;22.48;;
43994;SDS011;51687;52.160;5.298;2023-11-22T10:30:46;24.58;;;22.35;;
43994;SDS011;51687;52.160;5.298;2023-11-22T10:33:14;26.08;;;23.70;;
43994;SDS011;51687;52.160;5.298;2023-11-22T10:35:45;25.03;;;22.33;;
43994;SDS011;51687;52.160;5.298;2023-11-22T10:38:13;26.02;;;23.52;;
43994;SDS011;51687;52.160;5.298;2023-11-22T10:40:40;24.95;;;22.40;;
43994;SDS011;51687;52.160;5.298;2023-11-22T10:43:11;27.13;;;24.23;;
43994;SDS011;51687;52.160;5.298;2023-11-22T10:45:38;25.92;;;23.50;;
43994;SDS011;51687;52.160;5.298;2023-11-22T10:48:10;26.73;;;23.98;;
43994;SDS011;51687;52.160;5.298;2023-11-22T10:50:37;23.33;;;21.33;;
43994;SDS011;51687;52.160;5.298;2023-11-22T10:53:05;24.27;;;22.08;;
43994;SDS011;51687;52.160;5.298;2023-11-22T10:58:03;25.10;;;22.63;;
43994;SDS011;51687;52.160;5.298;2023-11-22T11:00:31;23.05;;;21.02;;
43994;SDS011;51687;52.160;5.298;2023-11-22T11:02:59;25.95;;;22.70;;
43994;SDS011;51687;52.160;5.298;2023-11-22T11:05:28;24.27;;;21.85;;
43994;SDS011;51687;52.160;5.298;2023-11-22T11:08:01;22.27;;;20.35;;
43994;SDS011;51687;52.160;5.298;2023-11-22T11:10:30;24.60;;;22.40;;
43994;SDS011;51687;52.160;5.298;2023-11-22T11:12:58;24.92;;;22.63;;
43994;SDS011;51687;52.160;5.298;2023-11-22T11:15:26;25.98;;;23.38;;
43994;SDS011;51687;52.160;5.298;2023-11-22T11:17:53;25.85;;;23.25;;
43994;SDS011;51687;52.160;5.298;2023-11-22T11:20:22;25.07;;;22.93;;
43994;SDS011;51687;52.160;5.298;2023-11-22T11:22:52;25.90;;;23.70;;
43994;SDS011;51687;52.160;5.298;2023-11-22T11:25:22;25.92;;;22.95;;
43994;SDS011;51687;52.160;5.298;2023-11-22T11:27:55;22.80;;;20.75;;
43994;SDS011;51687;52.160;5.298;2023-11-22T11:33:14;22.30;;;20.10;;
43994;SDS011;51687;52.160;5.298;2023-11-22T11:35:47;24.83;;;22.27;;
43994;SDS011;51687;52.160;5.298;2023-11-22T11:38:16;29.48;;;22.83;;
43994;SDS011;51687;52.160;5.298;2023-11-22T11:40:48;23.88;;;21.77;;
43994;SDS011;51687;52.160;5.298;2023-11-22T11:43:20;25.15;;;22.70;;
43994;SDS011;51687;52.160;5.298;2023-11-22T11:45:48;22.10;;;20.33;;
43994;SDS011;51687;52.160;5.298;2023-11-22T11:48:16;24.27;;;22.00;;
43994;SDS011;51687;52.160;5.298;2023-11-22T11:50:45;22.60;;;20.60;;
43994;SDS011;51687;52.160;5.298;2023-11-22T11:53:13;22.40;;;20.60;;
43994;SDS011;51687;52.160;5.298;2023-11-22T11:55:40;21.27;;;19.58;;
43994;SDS011;51687;52.160;5.298;2023-11-22T11:58:11;19.98;;;18.27;;
43994;SDS011;51687;52.160;5.298;2023-11-22T12:00:38;20.70;;;18.92;;
43994;SDS011;51687;52.160;5.298;2023-11-22T12:03:07;19.08;;;17.33;;
43994;SDS011;51687;52.160;5.298;2023-11-22T12:05:38;16.88;;;15.43;;
43994;SDS011;51687;52.160;5.298;2023-11-22T12:08:05;18.23;;;16.83;;
43994;SDS011;51687;52.160;5.298;2023-11-22T12:10:32;19.85;;;18.23;;
43994;SDS011;51687;52.160;5.298;2023-11-22T12:13:00;19.02;;;17.13;;
43994;SDS011;51687;52.160;5.298;2023-11-22T12:15:27;18.27;;;16.55;;
43994;SDS011;51687;52.160;5.298;2023-11-22T12:17:55;20.52;;;18.65;;
43994;SDS011;51687;52.160;5.298;2023-11-22T12:20:25;20.30;;;18.15;;
43994;SDS011;51687;52.160;5.298;2023-11-22T12:22:57;20.88;;;19.27;;
43994;SDS011;51687;52.160;5.298;2023-11-22T12:25:27;19.85;;;18.13;;
43994;SDS011;51687;52.160;5.298;2023-11-22T12:27:54;21.15;;;19.42;;
43994;SDS011;51687;52.160;5.298;2023-11-22T12:30:31;22.63;;;20.83;;
43994;SDS011;51687;52.160;5.298;2023-11-22T12:33:05;21.23;;;19.63;;
43994;SDS011;51687;52.160;5.298;2023-11-22T12:35:36;22.90;;;21.27;;
43994;SDS011;51687;52.160;5.298;2023-11-22T12:38:04;21.33;;;19.63;;
43994;SDS011;51687;52.160;5.298;2023-11-22T12:40:33;21.50;;;19.73;;
43994;SDS011;51687;52.160;5.298;2023-11-22T12:43:00;21.45;;;19.67;;
43994;SDS011;51687;52.160;5.298;2023-11-22T12:45:28;21.90;;;20.17;;
43994;SDS011;51687;52.160;5.298;2023-11-22T12:47:56;22.08;;;20.38;;
43994;SDS011;51687;52.160;5.298;2023-11-22T12:50:38;21.92;;;19.95;;
43994;SDS011;51687;52.160;5.298;2023-11-22T12:53:09;22.30;;;20.42;;
43994;SDS011;51687;52.160;5.298;2023-11-22T12:55:42;21.10;;;19.40;;
43994;SDS011;51687;52.160;5.298;2023-11-22T12:58:17;21.83;;;20.02;;
43994;SDS011;51687;52.160;5.298;2023-11-22T13:00:45;22.13;;;20.42;;
43994;SDS011;51687;52.160;5.298;2023-11-22T13:03:13;22.70;;;20.70;;
43994;SDS011;51687;52.160;5.298;2023-11-22T13:05:41;21.70;;;19.95;;
43994;SDS011;51687;52.160;5.298;2023-11-22T13:08:10;21.77;;;19.85;;
43994;SDS011;51687;52.160;5.298;2023-11-22T13:10:39;20.92;;;19.10;;
43994;SDS011;51687;52.160;5.298;2023-11-22T13:13:09;20.63;;;19.13;;
43994;SDS011;51687;52.160;5.298;2023-11-22T13:15:36;21.83;;;20.02;;
43994;SDS011;51687;52.160;5.298;2023-11-22T13:18:03;20.92;;;18.98;;
43994;SDS011;51687;52.160;5.298;2023-11-22T13:20:32;20.80;;;18.98;;
43994;SDS011;51687;52.160;5.298;2023-11-22T13:22:59;21.73;;;19.92;;
43994;SDS011;51687;52.160;5.298;2023-11-22T13:25:26;20.27;;;18.67;;
43994;SDS011;51687;52.160;5.298;2023-11-22T13:27:53;20.77;;;19.10;;
43994;SDS011;51687;52.160;5.298;2023-11-22T13:30:22;21.70;;;19.75;;
43994;SDS011;51687;52.160;5.298;2023-11-22T13:32:54;21.55;;;19.70;;
43994;SDS011;51687;52.160;5.298;2023-11-22T13:35:26;21.55;;;19.90;;
43994;SDS011;51687;52.160;5.298;2023-11-22T13:38:00;22.38;;;20.45;;
43994;SDS011;51687;52.160;5.298;2023-11-22T13:40:28;22.73;;;20.77;;
43994;SDS011;51687;52.160;5.298;2023-11-22T13:42:58;22.65;;;20.95;;
43994;SDS011;51687;52.160;5.298;2023-11-22T13:45:25;22.65;;;20.75;;
43994;SDS011;51687;52.160;5.298;2023-11-22T13:47:52;22.42;;;20.52;;
43994;SDS011;51687;52.160;5.298;2023-11-22T13:50:24;23.23;;;21.20;;
43994;SDS011;51687;52.160;5.298;2023-11-22T13:52:53;22.75;;;20.95;;
43994;SDS011;51687;52.160;5.298;2023-11-22T13:55:21;23.17;;;21.17;;
43994;SDS011;51687;52.160;5.298;2023-11-22T13:57:50;22.83;;;21.02;;
43994;SDS011;51687;52.160;5.298;2023-11-22T14:00:18;22.08;;;20.35;;
43994;SDS011;51687;52.160;5.298;2023-11-22T14:02:49;22.83;;;20.98;;
43994;SDS011;51687;52.160;5.298;2023-11-22T14:05:23;22.98;;;21.08;;
43994;SDS011;51687;52.160;5.298;2023-11-22T14:07:50;24.25;;;22.42;;
43994;SDS011;51687;52.160;5.298;2023-11-22T14:10:18;23.67;;;21.90;;
43994;SDS011;51687;52.160;5.298;2023-11-22T14:12:45;24.00;;;21.80;;
43994;SDS011;51687;52.160;5.298;2023-11-22T14:15:15;25.23;;;22.95;;
43994;SDS011;51687;52.160;5.298;2023-11-22T14:17:42;23.45;;;21.35;;
43994;SDS011;51687;52.160;5.298;2023-11-22T14:20:11;26.67;;;24.27;;
43994;SDS011;51687;52.160;5.298;2023-11-22T14:22:42;25.23;;;23.02;;
43994;SDS011;51687;52.160;5.298;2023-11-22T14:25:10;25.77;;;23.55;;
43994;SDS011;51687;52.160;5.298;2023-11-22T14:27:41;24.65;;;22.33;;
43994;SDS011;51687;52.160;5.298;2023-11-22T14:30:11;22.83;;;20.83;;
43994;SDS011;51687;52.160;5.298;2023-11-22T14:32:41;24.20;;;22.00;;
43994;SDS011;51687;52.160;5.298;2023-11-22T14:35:11;24.20;;;22.40;;
43994;SDS011;51687;52.160;5.298;2023-11-22T14:37:39;23.42;;;21.45;;
43994;SDS011;51687;52.160;5.298;2023-11-22T14:40:09;24.25;;;21.90;;
43994;SDS011;51687;52.160;5.298;2023-11-22T14:42:43;24.90;;;22.63;;
43994;SDS011;51687;52.160;5.298;2023-11-22T14:45:19;24.85;;;22.90;;
43994;SDS011;51687;52.160;5.298;2023-11-22T14:47:48;22.90;;;21.08;;